sensor_id;sensor_type;location;lat;lon;timestamp;P1;durP1;ratioP1;P2;durP2;ratioP2
25069;SDS011;13064;48.162;11.536;2023-06-22T00:01:19;8.82;;;3.70;;
25069;SDS011;13064;48.162;11.536;2023-06-22T00:03:49;7.00;;;3.85;;
25069;SDS011;13064;48.162;11.536;2023-06-22T00:06:16;8.40;;;3.97;;
25069;SDS011;13064;48.162;11.536;2023-06-22T00:08:44;8.45;;;4.30;;
25069;SDS011;13064;48.162;11.536;2023-06-22T00:11:11;8.20;;;3.90;;
25069;SDS011;13064;48.162;11.536;2023-06-22T00:13:39;10.00;;;3.80;;
25069;SDS011;13064;48.162;11.536;2023-06-22T00:16:07;8.43;;;3.70;;
25069;SDS011;13064;48.162;11.536;2023-06-22T00:18:34;11.52;;;4.18;;
25069;SDS011;13064;48.162;11.536;2023-06-22T00:21:02;9.90;;;3.95;;
25069;SDS011;13064;48.162;11.536;2023-06-22T00:23:30;10.80;;;3.75;;
25069;SDS011;13064;48.162;11.536;2023-06-22T00:26:00;9.43;;;3.65;;
25069;SDS011;13064;48.162;11.536;2023-06-22T00:28:28;8.57;;;4.25;;
25069;SDS011;13064;48.162;11.536;2023-06-22T00:30:56;6.65;;;3.90;;
25069;SDS011;13064;48.162;11.536;2023-06-22T00:33:25;8.90;;;4.50;;
25069;SDS011;13064;48.162;11.536;2023-06-22T00:35:52;9.70;;;3.92;;
25069;SDS011;13064;48.162;11.536;2023-06-22T00:38:20;10.18;;;4.13;;
25069;SDS011;13064;48.162;11.536;2023-06-22T00:40:48;8.40;;;4.40;;
25069;SDS011;13064;48.162;11.536;2023-06-22T00:43:15;6.60;;;4.07;;
25069;SDS011;13064;48.162;11.536;2023-06-22T00:45:43;6.10;;;3.85;;
25069;SDS011;13064;48.162;11.536;2023-06-22T00:48:11;7.97;;;4.35;;
25069;SDS011;13064;48.162;11.536;2023-06-22T00:50:39;9.13;;;4.18;;
25069;SDS011;13064;48.162;11.536;2023-06-22T00:53:08;8.80;;;3.67;;
25069;SDS011;13064;48.162;11.536;2023-06-22T00:55:41;7.73;;;4.37;;
25069;SDS011;13064;48.162;11.536;2023-06-22T00:58:10;9.07;;;3.90;;
25069;SDS011;13064;48.162;11.536;2023-06-22T01:00:38;12.73;;;3.92;;
25069;SDS011;13064;48.162;11.536;2023-06-22T01:03:07;11.80;;;4.55;;
25069;SDS011;13064;48.162;11.536;2023-06-22T01:05:38;9.18;;;4.03;;
25069;SDS011;13064;48.162;11.536;2023-06-22T01:16:35;9.77;;;4.30;;
25069;SDS011;13064;48.162;11.536;2023-06-22T01:19:54;9.88;;;4.40;;
25069;SDS011;13064;48.162;11.536;2023-06-22T01:21:53;7.32;;;3.70;;
25069;SDS011;13064;48.162;11.536;2023-06-22T01:24:24;8.15;;;3.67;;
25069;SDS011;13064;48.162;11.536;2023-06-22T01:29:22;11.77;;;4.00;;
25069;SDS011;13064;48.162;11.536;2023-06-22T01:31:51;9.20;;;4.50;;
25069;SDS011;13064;48.162;11.536;2023-06-22T01:34:21;9.70;;;4.15;;
25069;SDS011;13064;48.162;11.536;2023-06-22T01:36:50;8.32;;;4.32;;
25069;SDS011;13064;48.162;11.536;2023-06-22T01:39:18;8.60;;;4.15;;
25069;SDS011;13064;48.162;11.536;2023-06-22T01:41:47;9.13;;;4.22;;
25069;SDS011;13064;48.162;11.536;2023-06-22T01:44:15;8.25;;;3.88;;
25069;SDS011;13064;48.162;11.536;2023-06-22T01:46:43;12.23;;;4.43;;
25069;SDS011;13064;48.162;11.536;2023-06-22T01:49:12;8.88;;;4.07;;
25069;SDS011;13064;48.162;11.536;2023-06-22T01:51:40;7.20;;;3.92;;
25069;SDS011;13064;48.162;11.536;2023-06-22T01:54:08;9.98;;;4.10;;
25069;SDS011;13064;48.162;11.536;2023-06-22T01:56:36;6.25;;;4.00;;
25069;SDS011;13064;48.162;11.536;2023-06-22T01:59:25;8.57;;;3.92;;
25069;SDS011;13064;48.162;11.536;2023-06-22T02:01:54;7.10;;;4.10;;
25069;SDS011;13064;48.162;11.536;2023-06-22T02:04:26;8.68;;;4.32;;
25069;SDS011;13064;48.162;11.536;2023-06-22T02:06:55;7.18;;;4.22;;
25069;SDS011;13064;48.162;11.536;2023-06-22T02:09:23;7.43;;;3.90;;
25069;SDS011;13064;48.162;11.536;2023-06-22T02:11:53;8.15;;;4.47;;
25069;SDS011;13064;48.162;11.536;2023-06-22T02:14:22;10.05;;;4.22;;
25069;SDS011;13064;48.162;11.536;2023-06-22T02:16:51;7.05;;;4.97;;
25069;SDS011;13064;48.162;11.536;2023-06-22T02:19:22;7.00;;;3.92;;
25069;SDS011;13064;48.162;11.536;2023-06-22T02:21:50;8.63;;;3.83;;
25069;SDS011;13064;48.162;11.536;2023-06-22T02:24:19;7.20;;;4.10;;
25069;SDS011;13064;48.162;11.536;2023-06-22T02:26:49;7.63;;;4.30;;
25069;SDS011;13064;48.162;11.536;2023-06-22T02:29:17;12.45;;;4.40;;
25069;SDS011;13064;48.162;11.536;2023-06-22T02:31:45;9.48;;;4.63;;
25069;SDS011;13064;48.162;11.536;2023-06-22T02:34:12;6.78;;;4.07;;
25069;SDS011;13064;48.162;11.536;2023-06-22T02:36:48;8.65;;;4.00;;
25069;SDS011;13064;48.162;11.536;2023-06-22T02:39:23;6.78;;;4.13;;
25069;SDS011;13064;48.162;11.536;2023-06-22T02:41:52;8.60;;;3.90;;
25069;SDS011;13064;48.162;11.536;2023-06-22T02:44:21;7.90;;;3.70;;
25069;SDS011;13064;48.162;11.536;2023-06-22T02:46:49;6.95;;;3.80;;
25069;SDS011;13064;48.162;11.536;2023-06-22T02:49:17;13.05;;;4.20;;
25069;SDS011;13064;48.162;11.536;2023-06-22T02:51:46;8.50;;;4.00;;
25069;SDS011;13064;48.162;11.536;2023-06-22T02:54:16;9.07;;;5.13;;
25069;SDS011;13064;48.162;11.536;2023-06-22T02:56:46;11.93;;;4.20;;
25069;SDS011;13064;48.162;11.536;2023-06-22T02:59:14;6.65;;;4.38;;
25069;SDS011;13064;48.162;11.536;2023-06-22T03:01:43;9.73;;;4.43;;
25069;SDS011;13064;48.162;11.536;2023-06-22T03:04:19;8.68;;;4.88;;
25069;SDS011;13064;48.162;11.536;2023-06-22T03:06:47;10.48;;;5.30;;
25069;SDS011;13064;48.162;11.536;2023-06-22T03:09:18;10.25;;;4.55;;
25069;SDS011;13064;48.162;11.536;2023-06-22T03:11:45;10.07;;;5.80;;
25069;SDS011;13064;48.162;11.536;2023-06-22T03:14:13;11.82;;;5.15;;
25069;SDS011;13064;48.162;11.536;2023-06-22T03:16:41;10.82;;;5.07;;
25069;SDS011;13064;48.162;11.536;2023-06-22T03:19:09;10.63;;;4.57;;
25069;SDS011;13064;48.162;11.536;2023-06-22T03:21:37;12.15;;;5.05;;
25069;SDS011;13064;48.162;11.536;2023-06-22T03:24:08;11.90;;;4.45;;
25069;SDS011;13064;48.162;11.536;2023-06-22T03:26:37;10.52;;;5.00;;
25069;SDS011;13064;48.162;11.536;2023-06-22T03:29:04;12.60;;;4.80;;
25069;SDS011;13064;48.162;11.536;2023-06-22T03:31:33;9.75;;;5.03;;
25069;SDS011;13064;48.162;11.536;2023-06-22T03:34:01;10.75;;;4.68;;
25069;SDS011;13064;48.162;11.536;2023-06-22T03:36:29;8.02;;;4.47;;
25069;SDS011;13064;48.162;11.536;2023-06-22T03:38:57;10.02;;;4.30;;
25069;SDS011;13064;48.162;11.536;2023-06-22T03:41:24;13.02;;;5.18;;
25069;SDS011;13064;48.162;11.536;2023-06-22T03:43:52;9.32;;;4.80;;
25069;SDS011;13064;48.162;11.536;2023-06-22T03:46:20;6.40;;;4.43;;
25069;SDS011;13064;48.162;11.536;2023-06-22T03:48:47;8.85;;;3.78;;
25069;SDS011;13064;48.162;11.536;2023-06-22T03:51:15;15.15;;;4.90;;
25069;SDS011;13064;48.162;11.536;2023-06-22T03:53:43;8.13;;;5.05;;
25069;SDS011;13064;48.162;11.536;2023-06-22T03:56:10;13.23;;;5.18;;
25069;SDS011;13064;48.162;11.536;2023-06-22T03:58:38;8.43;;;4.78;;
25069;SDS011;13064;48.162;11.536;2023-06-22T04:01:09;12.57;;;5.32;;
25069;SDS011;13064;48.162;11.536;2023-06-22T04:03:38;8.75;;;4.75;;
25069;SDS011;13064;48.162;11.536;2023-06-22T04:06:06;9.07;;;4.65;;
25069;SDS011;13064;48.162;11.536;2023-06-22T04:08:33;15.10;;;5.68;;
25069;SDS011;13064;48.162;11.536;2023-06-22T04:11:01;11.57;;;5.28;;
25069;SDS011;13064;48.162;11.536;2023-06-22T04:13:28;7.45;;;4.85;;
25069;SDS011;13064;48.162;11.536;2023-06-22T04:15:56;11.15;;;5.05;;
25069;SDS011;13064;48.162;11.536;2023-06-22T04:18:24;8.32;;;4.68;;
25069;SDS011;13064;48.162;11.536;2023-06-22T04:20:51;10.27;;;5.53;;
25069;SDS011;13064;48.162;11.536;2023-06-22T04:23:19;10.73;;;5.38;;
25069;SDS011;13064;48.162;11.536;2023-06-22T04:25:46;9.77;;;5.22;;
25069;SDS011;13064;48.162;11.536;2023-06-22T04:28:14;10.55;;;5.25;;
25069;SDS011;13064;48.162;11.536;2023-06-22T04:30:42;10.98;;;5.78;;
25069;SDS011;13064;48.162;11.536;2023-06-22T04:33:14;11.70;;;5.65;;
25069;SDS011;13064;48.162;11.536;2023-06-22T04:35:44;9.35;;;5.47;;
25069;SDS011;13064;48.162;11.536;2023-06-22T04:38:12;12.60;;;5.47;;
25069;SDS011;13064;48.162;11.536;2023-06-22T04:40:39;9.40;;;5.30;;
25069;SDS011;13064;48.162;11.536;2023-06-22T04:43:07;10.60;;;5.50;;
25069;SDS011;13064;48.162;11.536;2023-06-22T04:45:36;10.27;;;5.43;;
25069;SDS011;13064;48.162;11.536;2023-06-22T04:48:07;10.63;;;5.55;;
25069;SDS011;13064;48.162;11.536;2023-06-22T04:50:42;12.40;;;5.50;;
25069;SDS011;13064;48.162;11.536;2023-06-22T04:53:10;12.48;;;5.40;;
25069;SDS011;13064;48.162;11.536;2023-06-22T04:55:39;10.95;;;5.00;;
25069;SDS011;13064;48.162;11.536;2023-06-22T04:58:08;10.00;;;4.70;;
25069;SDS011;13064;48.162;11.536;2023-06-22T05:00:39;11.73;;;5.82;;
25069;SDS011;13064;48.162;11.536;2023-06-22T05:05:45;16.55;;;5.60;;
25069;SDS011;13064;48.162;11.536;2023-06-22T05:08:13;14.45;;;6.00;;
25069;SDS011;13064;48.162;11.536;2023-06-22T05:10:41;12.85;;;5.80;;
25069;SDS011;13064;48.162;11.536;2023-06-22T05:13:28;12.95;;;5.93;;
25069;SDS011;13064;48.162;11.536;2023-06-22T05:15:56;14.45;;;6.43;;
25069;SDS011;13064;48.162;11.536;2023-06-22T05:18:28;12.85;;;5.65;;
25069;SDS011;13064;48.162;11.536;2023-06-22T05:20:57;9.85;;;5.28;;
25069;SDS011;13064;48.162;11.536;2023-06-22T05:23:25;12.68;;;5.75;;
25069;SDS011;13064;48.162;11.536;2023-06-22T05:25:53;17.70;;;5.90;;
25069;SDS011;13064;48.162;11.536;2023-06-22T05:28:24;17.85;;;5.90;;
25069;SDS011;13064;48.162;11.536;2023-06-22T05:30:51;11.18;;;6.10;;
25069;SDS011;13064;48.162;11.536;2023-06-22T05:33:19;11.35;;;6.07;;
25069;SDS011;13064;48.162;11.536;2023-06-22T05:35:47;14.45;;;6.35;;
25069;SDS011;13064;48.162;11.536;2023-06-22T05:38:17;12.57;;;6.20;;
25069;SDS011;13064;48.162;11.536;2023-06-22T05:40:45;10.43;;;6.00;;
25069;SDS011;13064;48.162;11.536;2023-06-22T05:43:12;14.80;;;5.95;;
25069;SDS011;13064;48.162;11.536;2023-06-22T05:45:40;15.60;;;6.22;;
25069;SDS011;13064;48.162;11.536;2023-06-22T05:48:07;14.20;;;6.32;;
25069;SDS011;13064;48.162;11.536;2023-06-22T05:50:36;13.45;;;6.57;;
25069;SDS011;13064;48.162;11.536;2023-06-22T05:53:04;12.02;;;6.40;;
25069;SDS011;13064;48.162;11.536;2023-06-22T05:55:33;15.27;;;6.20;;
25069;SDS011;13064;48.162;11.536;2023-06-22T05:58:01;15.52;;;6.30;;
25069;SDS011;13064;48.162;11.536;2023-06-22T06:00:30;13.80;;;6.30;;
25069;SDS011;13064;48.162;11.536;2023-06-22T06:02:58;11.98;;;6.60;;
25069;SDS011;13064;48.162;11.536;2023-06-22T06:07:57;16.83;;;6.10;;
25069;SDS011;13064;48.162;11.536;2023-06-22T06:10:25;14.50;;;6.88;;
25069;SDS011;13064;48.162;11.536;2023-06-22T06:12:54;14.57;;;6.75;;
25069;SDS011;13064;48.162;11.536;2023-06-22T06:15:22;14.82;;;6.47;;
25069;SDS011;13064;48.162;11.536;2023-06-22T06:17:52;13.50;;;6.38;;
25069;SDS011;13064;48.162;11.536;2023-06-22T06:20:22;13.02;;;6.00;;
25069;SDS011;13064;48.162;11.536;2023-06-22T06:22:50;12.65;;;6.50;;
25069;SDS011;13064;48.162;11.536;2023-06-22T06:25:18;15.35;;;6.45;;
25069;SDS011;13064;48.162;11.536;2023-06-22T06:27:49;15.93;;;6.72;;
25069;SDS011;13064;48.162;11.536;2023-06-22T06:30:18;11.90;;;6.65;;
25069;SDS011;13064;48.162;11.536;2023-06-22T06:32:46;12.02;;;6.28;;
25069;SDS011;13064;48.162;11.536;2023-06-22T06:35:14;16.90;;;6.47;;
25069;SDS011;13064;48.162;11.536;2023-06-22T06:37:47;13.40;;;6.50;;
25069;SDS011;13064;48.162;11.536;2023-06-22T06:40:15;21.27;;;7.15;;
25069;SDS011;13064;48.162;11.536;2023-06-22T06:42:44;11.32;;;6.50;;
25069;SDS011;13064;48.162;11.536;2023-06-22T06:45:12;14.10;;;5.72;;
25069;SDS011;13064;48.162;11.536;2023-06-22T06:47:40;13.02;;;6.20;;
25069;SDS011;13064;48.162;11.536;2023-06-22T06:50:08;18.83;;;7.18;;
25069;SDS011;13064;48.162;11.536;2023-06-22T06:52:36;12.63;;;6.30;;
25069;SDS011;13064;48.162;11.536;2023-06-22T06:55:05;13.52;;;6.07;;
25069;SDS011;13064;48.162;11.536;2023-06-22T06:57:38;13.93;;;6.38;;
25069;SDS011;13064;48.162;11.536;2023-06-22T07:00:06;11.77;;;5.88;;
25069;SDS011;13064;48.162;11.536;2023-06-22T07:02:40;17.23;;;6.18;;
25069;SDS011;13064;48.162;11.536;2023-06-22T07:05:08;14.30;;;6.20;;
25069;SDS011;13064;48.162;11.536;2023-06-22T07:07:36;18.63;;;6.05;;
25069;SDS011;13064;48.162;11.536;2023-06-22T07:10:07;17.02;;;6.60;;
25069;SDS011;13064;48.162;11.536;2023-06-22T07:12:34;15.80;;;6.82;;
25069;SDS011;13064;48.162;11.536;2023-06-22T07:15:03;10.35;;;6.03;;
25069;SDS011;13064;48.162;11.536;2023-06-22T07:17:31;16.83;;;6.35;;
25069;SDS011;13064;48.162;11.536;2023-06-22T07:19:59;11.73;;;6.22;;
25069;SDS011;13064;48.162;11.536;2023-06-22T07:22:26;15.45;;;5.95;;
25069;SDS011;13064;48.162;11.536;2023-06-22T07:24:54;18.50;;;6.68;;
25069;SDS011;13064;48.162;11.536;2023-06-22T07:27:22;14.95;;;6.35;;
25069;SDS011;13064;48.162;11.536;2023-06-22T07:29:50;15.77;;;6.47;;
25069;SDS011;13064;48.162;11.536;2023-06-22T07:32:18;20.52;;;6.75;;
25069;SDS011;13064;48.162;11.536;2023-06-22T07:34:45;15.15;;;6.45;;
25069;SDS011;13064;48.162;11.536;2023-06-22T07:37:13;13.63;;;6.43;;
25069;SDS011;13064;48.162;11.536;2023-06-22T07:39:41;12.90;;;6.43;;
25069;SDS011;13064;48.162;11.536;2023-06-22T07:42:09;16.67;;;6.75;;
25069;SDS011;13064;48.162;11.536;2023-06-22T07:44:36;18.23;;;6.47;;
25069;SDS011;13064;48.162;11.536;2023-06-22T07:47:04;15.43;;;5.95;;
25069;SDS011;13064;48.162;11.536;2023-06-22T07:49:32;19.23;;;7.65;;
25069;SDS011;13064;48.162;11.536;2023-06-22T07:51:59;14.05;;;6.10;;
25069;SDS011;13064;48.162;11.536;2023-06-22T07:56:58;18.67;;;6.97;;
25069;SDS011;13064;48.162;11.536;2023-06-22T07:59:26;11.52;;;6.30;;
25069;SDS011;13064;48.162;11.536;2023-06-22T08:01:54;15.77;;;7.03;;
25069;SDS011;13064;48.162;11.536;2023-06-22T08:04:22;19.17;;;6.78;;
25069;SDS011;13064;48.162;11.536;2023-06-22T08:06:50;14.82;;;6.72;;
25069;SDS011;13064;48.162;11.536;2023-06-22T08:09:17;13.63;;;5.78;;
25069;SDS011;13064;48.162;11.536;2023-06-22T08:11:45;16.05;;;6.47;;
25069;SDS011;13064;48.162;11.536;2023-06-22T08:14:12;17.20;;;6.00;;
25069;SDS011;13064;48.162;11.536;2023-06-22T08:16:41;14.23;;;6.57;;
25069;SDS011;13064;48.162;11.536;2023-06-22T08:19:09;17.02;;;7.30;;
25069;SDS011;13064;48.162;11.536;2023-06-22T08:21:36;13.20;;;6.30;;
25069;SDS011;13064;48.162;11.536;2023-06-22T08:24:04;14.40;;;5.82;;
25069;SDS011;13064;48.162;11.536;2023-06-22T08:26:33;15.70;;;6.80;;
25069;SDS011;13064;48.162;11.536;2023-06-22T08:29:03;16.98;;;6.68;;
25069;SDS011;13064;48.162;11.536;2023-06-22T08:31:31;14.07;;;5.78;;
25069;SDS011;13064;48.162;11.536;2023-06-22T08:34:02;15.50;;;6.27;;
25069;SDS011;13064;48.162;11.536;2023-06-22T08:36:29;13.35;;;5.63;;
25069;SDS011;13064;48.162;11.536;2023-06-22T08:38:59;19.73;;;6.68;;
25069;SDS011;13064;48.162;11.536;2023-06-22T08:41:29;21.05;;;6.38;;
25069;SDS011;13064;48.162;11.536;2023-06-22T08:43:57;18.20;;;5.90;;
25069;SDS011;13064;48.162;11.536;2023-06-22T08:46:25;15.35;;;5.90;;
25069;SDS011;13064;48.162;11.536;2023-06-22T08:48:58;15.05;;;5.88;;
25069;SDS011;13064;48.162;11.536;2023-06-22T08:51:26;20.05;;;6.22;;
25069;SDS011;13064;48.162;11.536;2023-06-22T08:53:54;15.18;;;6.20;;
25069;SDS011;13064;48.162;11.536;2023-06-22T08:56:31;17.20;;;6.60;;
25069;SDS011;13064;48.162;11.536;2023-06-22T08:58:58;14.35;;;6.10;;
25069;SDS011;13064;48.162;11.536;2023-06-22T09:01:27;13.80;;;6.35;;
25069;SDS011;13064;48.162;11.536;2023-06-22T09:03:54;14.10;;;6.22;;
25069;SDS011;13064;48.162;11.536;2023-06-22T09:06:24;11.63;;;5.68;;
25069;SDS011;13064;48.162;11.536;2023-06-22T09:08:52;15.80;;;6.45;;
25069;SDS011;13064;48.162;11.536;2023-06-22T09:11:20;13.45;;;6.97;;
25069;SDS011;13064;48.162;11.536;2023-06-22T09:13:47;17.20;;;7.05;;
25069;SDS011;13064;48.162;11.536;2023-06-22T09:16:15;15.95;;;6.18;;
25069;SDS011;13064;48.162;11.536;2023-06-22T09:18:45;15.95;;;5.82;;
25069;SDS011;13064;48.162;11.536;2023-06-22T09:21:14;17.48;;;6.22;;
25069;SDS011;13064;48.162;11.536;2023-06-22T09:23:41;18.80;;;6.00;;
25069;SDS011;13064;48.162;11.536;2023-06-22T09:26:09;13.90;;;5.80;;
25069;SDS011;13064;48.162;11.536;2023-06-22T09:28:37;17.70;;;6.25;;
25069;SDS011;13064;48.162;11.536;2023-06-22T09:31:04;12.68;;;5.50;;
25069;SDS011;13064;48.162;11.536;2023-06-22T09:33:32;11.63;;;5.57;;
25069;SDS011;13064;48.162;11.536;2023-06-22T09:36:00;19.30;;;6.03;;
25069;SDS011;13064;48.162;11.536;2023-06-22T09:38:27;14.30;;;5.72;;
25069;SDS011;13064;48.162;11.536;2023-06-22T09:40:55;16.02;;;6.15;;
25069;SDS011;13064;48.162;11.536;2023-06-22T09:43:22;15.48;;;6.05;;
25069;SDS011;13064;48.162;11.536;2023-06-22T09:45:50;17.23;;;6.38;;
25069;SDS011;13064;48.162;11.536;2023-06-22T09:48:18;16.20;;;5.90;;
25069;SDS011;13064;48.162;11.536;2023-06-22T09:50:45;18.98;;;5.93;;
25069;SDS011;13064;48.162;11.536;2023-06-22T09:53:13;12.30;;;5.80;;
25069;SDS011;13064;48.162;11.536;2023-06-22T09:55:40;16.33;;;5.72;;
25069;SDS011;13064;48.162;11.536;2023-06-22T09:58:08;19.75;;;6.10;;
25069;SDS011;13064;48.162;11.536;2023-06-22T10:00:36;17.88;;;5.97;;
25069;SDS011;13064;48.162;11.536;2023-06-22T10:03:04;15.63;;;6.10;;
25069;SDS011;13064;48.162;11.536;2023-06-22T10:05:32;15.43;;;6.18;;
25069;SDS011;13064;48.162;11.536;2023-06-22T10:07:59;17.63;;;6.35;;
25069;SDS011;13064;48.162;11.536;2023-06-22T10:10:27;13.95;;;5.38;;
25069;SDS011;13064;48.162;11.536;2023-06-22T10:12:55;26.75;;;6.78;;
25069;SDS011;13064;48.162;11.536;2023-06-22T10:15:23;19.70;;;6.15;;
25069;SDS011;13064;48.162;11.536;2023-06-22T10:17:54;17.42;;;6.40;;
25069;SDS011;13064;48.162;11.536;2023-06-22T10:20:21;20.65;;;7.18;;
25069;SDS011;13064;48.162;11.536;2023-06-22T10:22:49;17.95;;;6.20;;
25069;SDS011;13064;48.162;11.536;2023-06-22T10:25:17;15.48;;;6.35;;
25069;SDS011;13064;48.162;11.536;2023-06-22T10:27:45;19.17;;;6.32;;
25069;SDS011;13064;48.162;11.536;2023-06-22T10:30:12;15.88;;;5.85;;
25069;SDS011;13064;48.162;11.536;2023-06-22T10:32:41;16.50;;;7.15;;
25069;SDS011;13064;48.162;11.536;2023-06-22T10:35:09;15.32;;;6.10;;
25069;SDS011;13064;48.162;11.536;2023-06-22T10:37:37;17.85;;;6.10;;
25069;SDS011;13064;48.162;11.536;2023-06-22T10:40:05;14.75;;;6.13;;
25069;SDS011;13064;48.162;11.536;2023-06-22T10:42:34;14.15;;;6.10;;
25069;SDS011;13064;48.162;11.536;2023-06-22T10:45:02;19.23;;;6.50;;
25069;SDS011;13064;48.162;11.536;2023-06-22T10:47:30;14.88;;;6.32;;
25069;SDS011;13064;48.162;11.536;2023-06-22T10:49:58;16.15;;;6.00;;
25069;SDS011;13064;48.162;11.536;2023-06-22T10:52:26;13.43;;;5.68;;
25069;SDS011;13064;48.162;11.536;2023-06-22T10:54:53;23.08;;;6.10;;
25069;SDS011;13064;48.162;11.536;2023-06-22T10:57:21;10.65;;;5.75;;
25069;SDS011;13064;48.162;11.536;2023-06-22T10:59:49;15.35;;;6.07;;
25069;SDS011;13064;48.162;11.536;2023-06-22T11:02:16;15.13;;;5.80;;
25069;SDS011;13064;48.162;11.536;2023-06-22T11:04:44;18.20;;;6.22;;
25069;SDS011;13064;48.162;11.536;2023-06-22T11:07:13;10.23;;;5.50;;
25069;SDS011;13064;48.162;11.536;2023-06-22T11:09:40;14.35;;;6.22;;
25069;SDS011;13064;48.162;11.536;2023-06-22T11:12:08;12.20;;;5.78;;
25069;SDS011;13064;48.162;11.536;2023-06-22T11:14:35;14.40;;;6.28;;
25069;SDS011;13064;48.162;11.536;2023-06-22T11:17:03;18.10;;;6.45;;
25069;SDS011;13064;48.162;11.536;2023-06-22T11:19:31;19.48;;;6.60;;
25069;SDS011;13064;48.162;11.536;2023-06-22T11:21:58;16.30;;;6.43;;
25069;SDS011;13064;48.162;11.536;2023-06-22T11:24:26;13.63;;;5.72;;
25069;SDS011;13064;48.162;11.536;2023-06-22T11:26:53;17.45;;;6.60;;
25069;SDS011;13064;48.162;11.536;2023-06-22T11:29:24;12.88;;;5.70;;
25069;SDS011;13064;48.162;11.536;2023-06-22T11:32:03;13.73;;;6.05;;
25069;SDS011;13064;48.162;11.536;2023-06-22T11:34:31;16.27;;;6.10;;
25069;SDS011;13064;48.162;11.536;2023-06-22T11:36:58;18.67;;;5.88;;
25069;SDS011;13064;48.162;11.536;2023-06-22T11:39:26;13.05;;;5.50;;
25069;SDS011;13064;48.162;11.536;2023-06-22T11:42:09;14.77;;;5.32;;
25069;SDS011;13064;48.162;11.536;2023-06-22T11:44:37;16.40;;;6.47;;
25069;SDS011;13064;48.162;11.536;2023-06-22T11:47:04;12.70;;;6.10;;
25069;SDS011;13064;48.162;11.536;2023-06-22T11:49:32;16.25;;;6.32;;
25069;SDS011;13064;48.162;11.536;2023-06-22T11:52:00;14.27;;;5.88;;
25069;SDS011;13064;48.162;11.536;2023-06-22T11:54:27;12.32;;;5.72;;
25069;SDS011;13064;48.162;11.536;2023-06-22T11:56:55;12.02;;;5.30;;
25069;SDS011;13064;48.162;11.536;2023-06-22T11:59:22;13.35;;;5.38;;
25069;SDS011;13064;48.162;11.536;2023-06-22T12:01:50;15.75;;;5.70;;
25069;SDS011;13064;48.162;11.536;2023-06-22T12:04:18;15.70;;;5.57;;
25069;SDS011;13064;48.162;11.536;2023-06-22T12:06:45;13.15;;;5.63;;
25069;SDS011;13064;48.162;11.536;2023-06-22T12:09:13;14.25;;;6.43;;
25069;SDS011;13064;48.162;11.536;2023-06-22T12:11:41;13.63;;;5.85;;
25069;SDS011;13064;48.162;11.536;2023-06-22T12:14:08;15.35;;;5.85;;
25069;SDS011;13064;48.162;11.536;2023-06-22T12:16:36;15.18;;;6.35;;
25069;SDS011;13064;48.162;11.536;2023-06-22T12:19:04;21.95;;;6.43;;
25069;SDS011;13064;48.162;11.536;2023-06-22T12:21:31;16.52;;;6.35;;
25069;SDS011;13064;48.162;11.536;2023-06-22T12:23:59;18.60;;;6.20;;
25069;SDS011;13064;48.162;11.536;2023-06-22T12:26:27;20.17;;;6.20;;
25069;SDS011;13064;48.162;11.536;2023-06-22T12:28:54;14.90;;;6.22;;
25069;SDS011;13064;48.162;11.536;2023-06-22T12:31:22;18.02;;;6.72;;
25069;SDS011;13064;48.162;11.536;2023-06-22T12:33:50;18.15;;;5.80;;
25069;SDS011;13064;48.162;11.536;2023-06-22T12:36:17;18.35;;;6.20;;
25069;SDS011;13064;48.162;11.536;2023-06-22T12:38:45;15.90;;;6.20;;
25069;SDS011;13064;48.162;11.536;2023-06-22T12:41:12;16.73;;;6.30;;
25069;SDS011;13064;48.162;11.536;2023-06-22T12:43:40;21.27;;;6.50;;
25069;SDS011;13064;48.162;11.536;2023-06-22T12:46:08;19.40;;;6.50;;
25069;SDS011;13064;48.162;11.536;2023-06-22T12:48:35;19.00;;;6.63;;
25069;SDS011;13064;48.162;11.536;2023-06-22T12:51:09;17.50;;;6.18;;
25069;SDS011;13064;48.162;11.536;2023-06-22T12:53:37;19.45;;;6.28;;
25069;SDS011;13064;48.162;11.536;2023-06-22T12:56:04;16.73;;;6.47;;
25069;SDS011;13064;48.162;11.536;2023-06-22T12:58:32;17.80;;;6.13;;
25069;SDS011;13064;48.162;11.536;2023-06-22T13:00:59;18.65;;;6.05;;
25069;SDS011;13064;48.162;11.536;2023-06-22T13:03:27;18.73;;;6.18;;
25069;SDS011;13064;48.162;11.536;2023-06-22T13:05:55;16.48;;;6.22;;
25069;SDS011;13064;48.162;11.536;2023-06-22T13:08:22;17.52;;;5.82;;
25069;SDS011;13064;48.162;11.536;2023-06-22T13:11:01;14.38;;;6.13;;
25069;SDS011;13064;48.162;11.536;2023-06-22T13:13:28;19.25;;;5.97;;
25069;SDS011;13064;48.162;11.536;2023-06-22T13:15:56;17.50;;;6.22;;
25069;SDS011;13064;48.162;11.536;2023-06-22T13:18:24;14.07;;;5.63;;
25069;SDS011;13064;48.162;11.536;2023-06-22T13:20:51;16.60;;;5.68;;
25069;SDS011;13064;48.162;11.536;2023-06-22T13:23:21;16.80;;;5.22;;
25069;SDS011;13064;48.162;11.536;2023-06-22T13:25:49;14.80;;;5.70;;
25069;SDS011;13064;48.162;11.536;2023-06-22T13:28:17;16.13;;;5.80;;
25069;SDS011;13064;48.162;11.536;2023-06-22T13:30:54;17.38;;;5.88;;
25069;SDS011;13064;48.162;11.536;2023-06-22T13:33:22;17.90;;;5.80;;
25069;SDS011;13064;48.162;11.536;2023-06-22T13:35:52;20.50;;;5.80;;
25069;SDS011;13064;48.162;11.536;2023-06-22T13:38:19;12.55;;;5.53;;
25069;SDS011;13064;48.162;11.536;2023-06-22T13:40:47;18.95;;;6.20;;
25069;SDS011;13064;48.162;11.536;2023-06-22T13:43:15;20.02;;;5.80;;
25069;SDS011;13064;48.162;11.536;2023-06-22T13:45:43;13.70;;;5.63;;
25069;SDS011;13064;48.162;11.536;2023-06-22T13:48:11;16.20;;;5.50;;
25069;SDS011;13064;48.162;11.536;2023-06-22T13:50:38;16.83;;;5.80;;
25069;SDS011;13064;48.162;11.536;2023-06-22T13:53:06;16.30;;;5.35;;
25069;SDS011;13064;48.162;11.536;2023-06-22T13:55:33;15.10;;;5.60;;
25069;SDS011;13064;48.162;11.536;2023-06-22T13:58:01;19.60;;;5.78;;
25069;SDS011;13064;48.162;11.536;2023-06-22T14:00:29;14.60;;;6.18;;
25069;SDS011;13064;48.162;11.536;2023-06-22T14:02:57;17.05;;;5.55;;
25069;SDS011;13064;48.162;11.536;2023-06-22T14:05:25;12.48;;;5.72;;
25069;SDS011;13064;48.162;11.536;2023-06-22T14:07:52;13.88;;;6.22;;
25069;SDS011;13064;48.162;11.536;2023-06-22T14:10:20;15.60;;;6.03;;
25069;SDS011;13064;48.162;11.536;2023-06-22T14:12:47;14.35;;;5.68;;
25069;SDS011;13064;48.162;11.536;2023-06-22T14:15:15;15.63;;;5.35;;
25069;SDS011;13064;48.162;11.536;2023-06-22T14:17:43;13.90;;;6.00;;
25069;SDS011;13064;48.162;11.536;2023-06-22T14:20:10;15.25;;;5.47;;
25069;SDS011;13064;48.162;11.536;2023-06-22T14:22:38;14.18;;;5.35;;
25069;SDS011;13064;48.162;11.536;2023-06-22T14:25:06;13.65;;;5.40;;
25069;SDS011;13064;48.162;11.536;2023-06-22T14:27:34;22.30;;;6.32;;
25069;SDS011;13064;48.162;11.536;2023-06-22T14:30:01;14.38;;;5.57;;
25069;SDS011;13064;48.162;11.536;2023-06-22T14:32:32;18.38;;;5.72;;
25069;SDS011;13064;48.162;11.536;2023-06-22T14:35:00;14.35;;;5.25;;
25069;SDS011;13064;48.162;11.536;2023-06-22T14:37:28;17.88;;;5.10;;
25069;SDS011;13064;48.162;11.536;2023-06-22T14:39:55;14.38;;;5.90;;
25069;SDS011;13064;48.162;11.536;2023-06-22T14:42:23;16.92;;;5.38;;
25069;SDS011;13064;48.162;11.536;2023-06-22T14:44:53;14.38;;;5.43;;
25069;SDS011;13064;48.162;11.536;2023-06-22T14:47:20;16.50;;;5.07;;
25069;SDS011;13064;48.162;11.536;2023-06-22T14:49:48;16.95;;;5.95;;